sensor_id;sensor_type;location;lat;lon;timestamp;P1;durP1;ratioP1;P2;durP2;ratioP2
43325;SDS011;28920;59.862;30.636;2023-04-01T07:29:13;3.40;;;2.30;;
43325;SDS011;28920;59.862;30.636;2023-04-01T07:31:45;3.05;;;2.22;;
43325;SDS011;28920;59.862;30.636;2023-04-01T07:34:16;4.50;;;2.58;;
43325;SDS011;28920;59.862;30.636;2023-04-01T07:36:47;4.95;;;2.80;;
43325;SDS011;28920;59.862;30.636;2023-04-01T07:39:19;4.47;;;2.75;;
43325;SDS011;28920;59.862;30.636;2023-04-01T07:41:51;2.08;;;1.60;;
43325;SDS011;28920;59.862;30.636;2023-04-01T07:44:20;3.53;;;2.67;;
43325;SDS011;28920;59.862;30.636;2023-04-01T07:46:52;3.92;;;2.50;;
43325;SDS011;28920;59.862;30.636;2023-04-01T07:49:22;3.45;;;2.67;;
43325;SDS011;28920;59.862;30.636;2023-04-01T07:51:54;2.28;;;1.52;;
43325;SDS011;28920;59.862;30.636;2023-04-01T07:54:26;2.92;;;2.17;;
43325;SDS011;28920;59.862;30.636;2023-04-01T07:56:57;4.05;;;2.15;;
43325;SDS011;28920;59.862;30.636;2023-04-01T07:59:28;2.87;;;1.55;;
43325;SDS011;28920;59.862;30.636;2023-04-01T08:01:59;2.87;;;1.85;;
43325;SDS011;28920;59.862;30.636;2023-04-01T08:04:32;2.87;;;1.92;;
43325;SDS011;28920;59.862;30.636;2023-04-01T08:07:05;4.28;;;2.20;;
43325;SDS011;28920;59.862;30.636;2023-04-01T08:09:40;3.92;;;1.92;;
43325;SDS011;28920;59.862;30.636;2023-04-01T08:12:18;3.67;;;1.95;;
43325;SDS011;28920;59.862;30.636;2023-04-01T08:14:59;2.37;;;1.90;;
43325;SDS011;28920;59.862;30.636;2023-04-01T08:17:31;2.62;;;1.60;;
43325;SDS011;28920;59.862;30.636;2023-04-01T08:20:09;3.80;;;2.10;;
43325;SDS011;28920;59.862;30.636;2023-04-01T08:22:38;2.15;;;1.75;;
43325;SDS011;28920;59.862;30.636;2023-04-01T08:27:37;2.45;;;1.60;;
43325;SDS011;28920;59.862;30.636;2023-04-01T08:30:14;2.20;;;1.70;;
43325;SDS011;28920;59.862;30.636;2023-04-01T08:32:43;4.07;;;1.95;;
43325;SDS011;28920;59.862;30.636;2023-04-01T08:35:14;2.00;;;1.48;;
43325;SDS011;28920;59.862;30.636;2023-04-01T08:37:45;3.55;;;2.20;;
43325;SDS011;28920;59.862;30.636;2023-04-01T08:40:25;2.28;;;2.00;;
43325;SDS011;28920;59.862;30.636;2023-04-01T08:42:55;2.53;;;1.80;;
43325;SDS011;28920;59.862;30.636;2023-04-01T08:45:42;2.58;;;1.40;;
43325;SDS011;28920;59.862;30.636;2023-04-01T08:48:28;5.00;;;2.15;;
43325;SDS011;28920;59.862;30.636;2023-04-01T08:51:16;3.37;;;1.67;;
43325;SDS011;28920;59.862;30.636;2023-04-01T08:53:51;4.75;;;3.03;;
43325;SDS011;28920;59.862;30.636;2023-04-01T08:56:26;3.50;;;2.12;;
43325;SDS011;28920;59.862;30.636;2023-04-01T08:59:05;2.85;;;2.08;;
43325;SDS011;28920;59.862;30.636;2023-04-01T09:01:43;2.20;;;1.60;;
43325;SDS011;28920;59.862;30.636;2023-04-01T09:04:25;3.50;;;2.10;;
43325;SDS011;28920;59.862;30.636;2023-04-01T09:07:00;3.70;;;1.80;;
43325;SDS011;28920;59.862;30.636;2023-04-01T09:12:26;3.62;;;2.30;;
43325;SDS011;28920;59.862;30.636;2023-04-01T09:15:01;2.97;;;2.08;;
43325;SDS011;28920;59.862;30.636;2023-04-01T09:17:38;4.72;;;3.80;;
43325;SDS011;28920;59.862;30.636;2023-04-01T09:20:19;4.40;;;3.42;;
43325;SDS011;28920;59.862;30.636;2023-04-01T09:22:53;5.53;;;3.30;;
43325;SDS011;28920;59.862;30.636;2023-04-01T09:25:26;4.95;;;3.55;;
43325;SDS011;28920;59.862;30.636;2023-04-01T09:27:56;4.32;;;2.30;;
43325;SDS011;28920;59.862;30.636;2023-04-01T09:30:33;4.43;;;3.08;;
43325;SDS011;28920;59.862;30.636;2023-04-01T09:35:37;2.62;;;2.12;;
43325;SDS011;28920;59.862;30.636;2023-04-01T09:38:11;3.10;;;2.37;;
43325;SDS011;28920;59.862;30.636;2023-04-01T09:40:47;2.80;;;2.00;;
43325;SDS011;28920;59.862;30.636;2023-04-01T09:43:25;2.20;;;2.00;;
43325;SDS011;28920;59.862;30.636;2023-04-01T09:45:56;3.40;;;2.30;;
43325;SDS011;28920;59.862;30.636;2023-04-01T09:48:30;3.05;;;2.28;;
43325;SDS011;28920;59.862;30.636;2023-04-01T09:51:17;5.93;;;2.70;;
43325;SDS011;28920;59.862;30.636;2023-04-01T09:53:49;4.00;;;3.15;;
43325;SDS011;28920;59.862;30.636;2023-04-01T09:59:23;5.80;;;3.58;;
43325;SDS011;28920;59.862;30.636;2023-04-01T10:02:07;4.03;;;3.03;;
43325;SDS011;28920;59.862;30.636;2023-04-01T10:04:45;5.22;;;3.70;;
43325;SDS011;28920;59.862;30.636;2023-04-01T10:07:27;4.70;;;3.40;;
43325;SDS011;28920;59.862;30.636;2023-04-01T10:15:46;3.20;;;2.45;;
43325;SDS011;28920;59.862;30.636;2023-04-01T10:18:35;3.75;;;2.45;;
43325;SDS011;28920;59.862;30.636;2023-04-01T10:26:45;3.95;;;2.67;;
43325;SDS011;28920;59.862;30.636;2023-04-01T10:32:23;8.07;;;4.10;;
43325;SDS011;28920;59.862;30.636;2023-04-01T10:43:35;2.45;;;2.08;;
43325;SDS011;28920;59.862;30.636;2023-04-01T10:46:30;6.10;;;3.08;;
43325;SDS011;28920;59.862;30.636;2023-04-01T10:49:09;7.78;;;4.32;;
43325;SDS011;28920;59.862;30.636;2023-04-01T10:51:42;4.00;;;3.22;;
43325;SDS011;28920;59.862;30.636;2023-04-01T10:54:30;4.47;;;2.97;;
43325;SDS011;28920;59.862;30.636;2023-04-01T10:57:08;3.92;;;2.20;;
43325;SDS011;28920;59.862;30.636;2023-04-01T11:03:03;4.20;;;2.90;;
43325;SDS011;28920;59.862;30.636;2023-04-01T11:05:52;4.03;;;3.30;;
43325;SDS011;28920;59.862;30.636;2023-04-01T11:17:01;3.50;;;2.25;;
43325;SDS011;28920;59.862;30.636;2023-04-01T11:22:41;4.75;;;2.53;;
43325;SDS011;28920;59.862;30.636;2023-04-01T11:25:24;5.50;;;2.87;;
43325;SDS011;28920;59.862;30.636;2023-04-01T11:28:04;6.85;;;3.92;;
43325;SDS011;28920;59.862;30.636;2023-04-01T11:30:40;3.95;;;2.70;;
43325;SDS011;28920;59.862;30.636;2023-04-01T11:33:11;4.18;;;2.70;;
43325;SDS011;28920;59.862;30.636;2023-04-01T11:35:53;3.65;;;2.42;;
43325;SDS011;28920;59.862;30.636;2023-04-01T11:38:33;3.70;;;2.25;;
43325;SDS011;28920;59.862;30.636;2023-04-01T11:41:17;12.90;;;5.95;;
43325;SDS011;28920;59.862;30.636;2023-04-01T11:43:53;4.53;;;3.30;;
43325;SDS011;28920;59.862;30.636;2023-04-01T11:46:28;4.62;;;2.80;;
43325;SDS011;28920;59.862;30.636;2023-04-01T11:49:00;5.00;;;3.10;;
43325;SDS011;28920;59.862;30.636;2023-04-01T11:51:39;6.78;;;3.60;;
43325;SDS011;28920;59.862;30.636;2023-04-01T11:54:12;9.27;;;5.60;;
43325;SDS011;28920;59.862;30.636;2023-04-01T11:56:55;28.60;;;17.02;;
43325;SDS011;28920;59.862;30.636;2023-04-01T11:59:42;19.30;;;11.98;;
43325;SDS011;28920;59.862;30.636;2023-04-01T12:02:12;14.18;;;8.45;;
43325;SDS011;28920;59.862;30.636;2023-04-01T12:04:51;25.77;;;18.15;;
43325;SDS011;28920;59.862;30.636;2023-04-01T12:07:25;24.02;;;20.80;;
43325;SDS011;28920;59.862;30.636;2023-04-01T12:12:22;5.70;;;5.10;;
43325;SDS011;28920;59.862;30.636;2023-04-01T12:14:54;3.87;;;3.50;;
43325;SDS011;28920;59.862;30.636;2023-04-01T12:17:29;3.42;;;2.62;;
43325;SDS011;28920;59.862;30.636;2023-04-01T12:19:58;9.00;;;8.20;;
43325;SDS011;28920;59.862;30.636;2023-04-01T12:22:39;164.07;;;73.37;;
43325;SDS011;28920;59.862;30.636;2023-04-01T12:25:20;71.95;;;32.35;;
43325;SDS011;28920;59.862;30.636;2023-04-01T12:27:54;54.60;;;23.20;;
43325;SDS011;28920;59.862;30.636;2023-04-01T12:30:30;32.92;;;16.17;;
43325;SDS011;28920;59.862;30.636;2023-04-01T12:33:22;12.13;;;7.00;;
43325;SDS011;28920;59.862;30.636;2023-04-01T12:35:54;6.68;;;3.83;;
43325;SDS011;28920;59.862;30.636;2023-04-01T12:38:25;5.70;;;3.83;;
43325;SDS011;28920;59.862;30.636;2023-04-01T12:41:07;8.85;;;6.50;;
43325;SDS011;28920;59.862;30.636;2023-04-01T12:43:48;10.45;;;5.35;;
43325;SDS011;28920;59.862;30.636;2023-04-01T12:46:16;6.80;;;4.03;;
43325;SDS011;28920;59.862;30.636;2023-04-01T12:49:08;8.50;;;5.25;;
43325;SDS011;28920;59.862;30.636;2023-04-01T12:51:41;6.07;;;3.53;;
43325;SDS011;28920;59.862;30.636;2023-04-01T12:54:18;4.22;;;3.10;;
43325;SDS011;28920;59.862;30.636;2023-04-01T12:56:49;5.15;;;3.55;;
43325;SDS011;28920;59.862;30.636;2023-04-01T12:59:23;5.40;;;3.42;;
43325;SDS011;28920;59.862;30.636;2023-04-01T13:02:01;4.50;;;3.25;;
43325;SDS011;28920;59.862;30.636;2023-04-01T13:07:32;4.43;;;3.20;;
43325;SDS011;28920;59.862;30.636;2023-04-01T13:10:02;4.25;;;3.22;;
43325;SDS011;28920;59.862;30.636;2023-04-01T13:12:36;9.52;;;4.20;;
43325;SDS011;28920;59.862;30.636;2023-04-01T13:17:53;7.15;;;4.55;;
43325;SDS011;28920;59.862;30.636;2023-04-01T13:20:27;5.40;;;3.25;;
43325;SDS011;28920;59.862;30.636;2023-04-01T13:23:03;5.03;;;2.62;;
43325;SDS011;28920;59.862;30.636;2023-04-01T13:25:36;6.18;;;4.30;;
43325;SDS011;28920;59.862;30.636;2023-04-01T13:28:06;8.13;;;5.80;;
43325;SDS011;28920;59.862;30.636;2023-04-01T13:30:35;8.02;;;3.45;;
43325;SDS011;28920;59.862;30.636;2023-04-01T13:33:10;46.35;;;15.55;;
43325;SDS011;28920;59.862;30.636;2023-04-01T13:35:41;35.53;;;12.65;;
43325;SDS011;28920;59.862;30.636;2023-04-01T13:38:35;20.33;;;10.57;;
43325;SDS011;28920;59.862;30.636;2023-04-01T13:41:06;25.33;;;11.05;;
43325;SDS011;28920;59.862;30.636;2023-04-01T13:43:39;10.38;;;5.70;;
43325;SDS011;28920;59.862;30.636;2023-04-01T13:49:03;12.25;;;7.22;;
43325;SDS011;28920;59.862;30.636;2023-04-01T13:54:24;19.00;;;10.65;;
43325;SDS011;28920;59.862;30.636;2023-04-01T13:56:57;9.20;;;5.60;;
43325;SDS011;28920;59.862;30.636;2023-04-01T14:02:31;8.75;;;6.53;;
43325;SDS011;28920;59.862;30.636;2023-04-01T14:05:10;12.45;;;7.50;;
43325;SDS011;28920;59.862;30.636;2023-04-01T14:07:50;11.93;;;7.80;;
43325;SDS011;28920;59.862;30.636;2023-04-01T14:10:19;5.57;;;3.65;;
43325;SDS011;28920;59.862;30.636;2023-04-01T14:12:50;6.72;;;4.37;;
43325;SDS011;28920;59.862;30.636;2023-04-01T14:15:33;5.07;;;3.75;;
43325;SDS011;28920;59.862;30.636;2023-04-01T14:18:09;5.22;;;2.85;;
43325;SDS011;28920;59.862;30.636;2023-04-01T14:20:39;5.87;;;2.70;;
43325;SDS011;28920;59.862;30.636;2023-04-01T14:23:16;6.03;;;3.65;;
43325;SDS011;28920;59.862;30.636;2023-04-01T14:25:53;6.80;;;4.30;;
43325;SDS011;28920;59.862;30.636;2023-04-01T14:28:23;37.45;;;15.88;;
43325;SDS011;28920;59.862;30.636;2023-04-01T14:30:55;18.50;;;8.97;;
43325;SDS011;28920;59.862;30.636;2023-04-01T14:33:26;9.80;;;6.10;;
43325;SDS011;28920;59.862;30.636;2023-04-01T14:36:00;7.15;;;3.28;;
43325;SDS011;28920;59.862;30.636;2023-04-01T14:38:33;10.95;;;6.28;;
43325;SDS011;28920;59.862;30.636;2023-04-01T14:41:12;5.47;;;3.78;;
43325;SDS011;28920;59.862;30.636;2023-04-01T14:46:33;4.43;;;3.50;;
43325;SDS011;28920;59.862;30.636;2023-04-01T14:49:04;19.70;;;8.65;;
43325;SDS011;28920;59.862;30.636;2023-04-01T14:51:33;7.82;;;4.53;;
43325;SDS011;28920;59.862;30.636;2023-04-01T14:54:03;5.03;;;2.90;;
43325;SDS011;28920;59.862;30.636;2023-04-01T14:56:36;4.05;;;2.78;;
43325;SDS011;28920;59.862;30.636;2023-04-01T14:59:04;6.97;;;2.70;;
43325;SDS011;28920;59.862;30.636;2023-04-01T15:01:35;3.47;;;2.72;;
43325;SDS011;28920;59.862;30.636;2023-04-01T15:04:14;10.00;;;6.47;;
43325;SDS011;28920;59.862;30.636;2023-04-01T15:06:48;8.13;;;5.43;;
43325;SDS011;28920;59.862;30.636;2023-04-01T15:09:21;7.60;;;4.55;;
43325;SDS011;28920;59.862;30.636;2023-04-01T15:14:22;51.67;;;26.17;;
43325;SDS011;28920;59.862;30.636;2023-04-01T15:16:55;24.80;;;11.32;;
43325;SDS011;28920;59.862;30.636;2023-04-01T15:19:28;9.10;;;4.75;;
43325;SDS011;28920;59.862;30.636;2023-04-01T15:24:47;9.35;;;6.25;;
43325;SDS011;28920;59.862;30.636;2023-04-01T15:27:17;5.55;;;3.42;;
43325;SDS011;28920;59.862;30.636;2023-04-01T15:29:52;5.53;;;3.80;;
43325;SDS011;28920;59.862;30.636;2023-04-01T15:32:28;6.95;;;3.95;;
43325;SDS011;28920;59.862;30.636;2023-04-01T15:34:57;4.07;;;3.40;;
43325;SDS011;28920;59.862;30.636;2023-04-01T15:37:28;4.20;;;2.80;;
43325;SDS011;28920;59.862;30.636;2023-04-01T15:39:59;7.72;;;4.00;;
43325;SDS011;28920;59.862;30.636;2023-04-01T15:42:35;27.45;;;14.98;;
43325;SDS011;28920;59.862;30.636;2023-04-01T15:45:16;9.48;;;5.18;;
43325;SDS011;28920;59.862;30.636;2023-04-01T15:47:45;16.95;;;8.82;;
43325;SDS011;28920;59.862;30.636;2023-04-01T15:53:01;10.20;;;6.22;;
43325;SDS011;28920;59.862;30.636;2023-04-01T15:55:31;12.63;;;6.40;;
43325;SDS011;28920;59.862;30.636;2023-04-01T15:58:06;6.32;;;3.47;;
43325;SDS011;28920;59.862;30.636;2023-04-01T16:00:44;6.82;;;4.87;;
43325;SDS011;28920;59.862;30.636;2023-04-01T16:03:18;7.15;;;4.47;;
43325;SDS011;28920;59.862;30.636;2023-04-01T16:05:53;34.13;;;18.15;;
43325;SDS011;28920;59.862;30.636;2023-04-01T16:08:34;14.95;;;6.87;;
43325;SDS011;28920;59.862;30.636;2023-04-01T16:11:08;8.73;;;5.37;;
43325;SDS011;28920;59.862;30.636;2023-04-01T16:13:46;10.00;;;6.43;;
43325;SDS011;28920;59.862;30.636;2023-04-01T16:16:15;11.35;;;6.22;;
43325;SDS011;28920;59.862;30.636;2023-04-01T16:18:57;9.75;;;5.57;;
43325;SDS011;28920;59.862;30.636;2023-04-01T16:21:33;10.90;;;5.82;;
43325;SDS011;28920;59.862;30.636;2023-04-01T16:24:03;12.82;;;5.45;;
43325;SDS011;28920;59.862;30.636;2023-04-01T16:26:34;9.50;;;4.50;;
43325;SDS011;28920;59.862;30.636;2023-04-01T16:29:05;19.85;;;9.95;;
43325;SDS011;28920;59.862;30.636;2023-04-01T16:31:34;22.42;;;11.40;;
43325;SDS011;28920;59.862;30.636;2023-04-01T16:34:03;20.52;;;11.00;;
43325;SDS011;28920;59.862;30.636;2023-04-01T16:36:33;89.00;;;34.53;;
43325;SDS011;28920;59.862;30.636;2023-04-01T16:39:08;18.85;;;9.48;;
43325;SDS011;28920;59.862;30.636;2023-04-01T16:41:38;17.67;;;9.27;;
43325;SDS011;28920;59.862;30.636;2023-04-01T16:44:10;12.43;;;8.00;;
43325;SDS011;28920;59.862;30.636;2023-04-01T16:46:40;10.75;;;7.43;;
43325;SDS011;28920;59.862;30.636;2023-04-01T16:49:24;8.02;;;5.68;;
43325;SDS011;28920;59.862;30.636;2023-04-01T16:51:53;7.45;;;4.47;;
43325;SDS011;28920;59.862;30.636;2023-04-01T16:54:27;10.50;;;5.05;;
43325;SDS011;28920;59.862;30.636;2023-04-01T16:56:56;8.77;;;5.28;;
43325;SDS011;28920;59.862;30.636;2023-04-01T16:59:24;15.52;;;8.77;;
43325;SDS011;28920;59.862;30.636;2023-04-01T17:01:53;18.52;;;10.25;;
43325;SDS011;28920;59.862;30.636;2023-04-01T17:04:25;21.70;;;11.38;;
43325;SDS011;28920;59.862;30.636;2023-04-01T17:06:55;34.22;;;17.00;;
43325;SDS011;28920;59.862;30.636;2023-04-01T17:09:29;38.25;;;19.55;;
43325;SDS011;28920;59.862;30.636;2023-04-01T17:12:01;35.65;;;16.92;;
43325;SDS011;28920;59.862;30.636;2023-04-01T17:14:33;47.03;;;23.00;;
43325;SDS011;28920;59.862;30.636;2023-04-01T17:17:18;39.35;;;20.75;;
43325;SDS011;28920;59.862;30.636;2023-04-01T17:22:33;36.33;;;19.35;;
43325;SDS011;28920;59.862;30.636;2023-04-01T17:28:07;21.42;;;11.20;;
43325;SDS011;28920;59.862;30.636;2023-04-01T17:30:37;16.80;;;9.20;;
43325;SDS011;28920;59.862;30.636;2023-04-01T17:35:49;13.60;;;8.05;;
43325;SDS011;28920;59.862;30.636;2023-04-01T17:38:18;13.65;;;9.23;;
43325;SDS011;28920;59.862;30.636;2023-04-01T17:40:51;16.70;;;8.82;;
43325;SDS011;28920;59.862;30.636;2023-04-01T17:43:22;16.20;;;8.38;;
43325;SDS011;28920;59.862;30.636;2023-04-01T17:45:52;16.27;;;8.43;;
43325;SDS011;28920;59.862;30.636;2023-04-01T17:48:23;19.45;;;10.93;;
43325;SDS011;28920;59.862;30.636;2023-04-01T17:50:59;23.87;;;13.30;;
43325;SDS011;28920;59.862;30.636;2023-04-01T17:53:33;23.55;;;11.93;;
43325;SDS011;28920;59.862;30.636;2023-04-01T17:56:06;33.00;;;16.40;;
43325;SDS011;28920;59.862;30.636;2023-04-01T17:58:38;27.20;;;13.65;;
43325;SDS011;28920;59.862;30.636;2023-04-01T18:01:12;25.75;;;13.38;;
43325;SDS011;28920;59.862;30.636;2023-04-01T18:06:27;22.92;;;11.88;;
43325;SDS011;28920;59.862;30.636;2023-04-01T18:08:58;20.05;;;11.48;;
43325;SDS011;28920;59.862;30.636;2023-04-01T18:11:33;17.35;;;10.27;;
43325;SDS011;28920;59.862;30.636;2023-04-01T18:14:10;17.33;;;10.05;;
43325;SDS011;28920;59.862;30.636;2023-04-01T18:16:46;13.27;;;7.78;;
43325;SDS011;28920;59.862;30.636;2023-04-01T18:19:17;15.02;;;8.57;;
43325;SDS011;28920;59.862;30.636;2023-04-01T18:21:49;15.10;;;9.10;;
43325;SDS011;28920;59.862;30.636;2023-04-01T18:24:19;16.33;;;9.73;;
43325;SDS011;28920;59.862;30.636;2023-04-01T18:26:49;28.73;;;15.35;;
43325;SDS011;28920;59.862;30.636;2023-04-01T18:29:23;21.70;;;13.68;;
43325;SDS011;28920;59.862;30.636;2023-04-01T18:31:51;32.92;;;17.80;;
43325;SDS011;28920;59.862;30.636;2023-04-01T18:34:26;31.37;;;17.23;;
43325;SDS011;28920;59.862;30.636;2023-04-01T18:36:55;30.00;;;16.20;;
43325;SDS011;28920;59.862;30.636;2023-04-01T18:39:23;30.80;;;16.55;;
43325;SDS011;28920;59.862;30.636;2023-04-01T18:41:59;30.35;;;15.75;;
43325;SDS011;28920;59.862;30.636;2023-04-01T18:44:37;36.80;;;16.92;;
43325;SDS011;28920;59.862;30.636;2023-04-01T18:47:13;27.98;;;14.50;;
43325;SDS011;28920;59.862;30.636;2023-04-01T18:49:41;22.00;;;11.52;;
43325;SDS011;28920;59.862;30.636;2023-04-01T18:52:13;33.55;;;14.23;;
43325;SDS011;28920;59.862;30.636;2023-04-01T18:54:41;35.60;;;19.27;;
43325;SDS011;28920;59.862;30.636;2023-04-01T18:57:10;40.38;;;18.70;;
43325;SDS011;28920;59.862;30.636;2023-04-01T18:59:39;28.62;;;15.27;;
43325;SDS011;28920;59.862;30.636;2023-04-01T19:02:13;34.25;;;15.93;;
43325;SDS011;28920;59.862;30.636;2023-04-01T19:04:41;21.20;;;10.65;;
43325;SDS011;28920;59.862;30.636;2023-04-01T19:10:12;14.82;;;8.18;;
43325;SDS011;28920;59.862;30.636;2023-04-01T19:12:39;15.55;;;9.05;;
43325;SDS011;28920;59.862;30.636;2023-04-01T19:15:17;25.98;;;14.55;;
43325;SDS011;28920;59.862;30.636;2023-04-01T19:17:52;20.12;;;11.68;;
43325;SDS011;28920;59.862;30.636;2023-04-01T19:20:22;20.83;;;10.70;;
43325;SDS011;28920;59.862;30.636;2023-04-01T19:22:55;24.48;;;11.50;;
43325;SDS011;28920;59.862;30.636;2023-04-01T19:25:29;20.85;;;10.77;;
43325;SDS011;28920;59.862;30.636;2023-04-01T19:28:00;31.00;;;16.67;;
43325;SDS011;28920;59.862;30.636;2023-04-01T19:30:45;33.53;;;18.52;;
43325;SDS011;28920;59.862;30.636;2023-04-01T19:33:19;30.17;;;17.73;;
43325;SDS011;28920;59.862;30.636;2023-04-01T19:35:51;21.35;;;13.45;;
43325;SDS011;28920;59.862;30.636;2023-04-01T19:38:19;12.30;;;8.88;;
43325;SDS011;28920;59.862;30.636;2023-04-01T19:40:53;14.10;;;8.15;;
43325;SDS011;28920;59.862;30.636;2023-04-01T19:46:13;9.65;;;6.45;;
43325;SDS011;28920;59.862;30.636;2023-04-01T19:48:53;7.60;;;5.50;;
43325;SDS011;28920;59.862;30.636;2023-04-01T19:51:23;11.77;;;5.43;;
43325;SDS011;28920;59.862;30.636;2023-04-01T19:53:52;10.18;;;5.75;;
43325;SDS011;28920;59.862;30.636;2023-04-01T19:56:23;9.35;;;5.07;;
43325;SDS011;28920;59.862;30.636;2023-04-01T19:58:53;9.95;;;5.68;;
43325;SDS011;28920;59.862;30.636;2023-04-01T20:01:24;9.85;;;5.28;;
43325;SDS011;28920;59.862;30.636;2023-04-01T20:03:54;9.07;;;4.60;;
43325;SDS011;28920;59.862;30.636;2023-04-01T20:06:23;7.05;;;4.47;;
43325;SDS011;28920;59.862;30.636;2023-04-01T20:08:54;9.70;;;6.20;;
43325;SDS011;28920;59.862;30.636;2023-04-01T20:11:30;10.20;;;5.95;;
43325;SDS011;28920;59.862;30.636;2023-04-01T20:14:07;8.00;;;4.68;;
43325;SDS011;28920;59.862;30.636;2023-04-01T20:16:58;11.65;;;5.80;;
43325;SDS011;28920;59.862;30.636;2023-04-01T20:19:28;7.43;;;4.60;;
43325;SDS011;28920;59.862;30.636;2023-04-01T20:21:56;6.97;;;4.20;;
43325;SDS011;28920;59.862;30.636;2023-04-01T20:24:24;7.50;;;4.20;;
43325;SDS011;28920;59.862;30.636;2023-04-01T20:26:54;6.70;;;4.37;;
43325;SDS011;28920;59.862;30.636;2023-04-01T20:32:21;6.30;;;3.95;;
43325;SDS011;28920;59.862;30.636;2023-04-01T20:34:58;8.00;;;3.80;;
43325;SDS011;28920;59.862;30.636;2023-04-01T20:37:33;7.12;;;4.28;;
43325;SDS011;28920;59.862;30.636;2023-04-01T20:40:20;7.32;;;4.40;;
43325;SDS011;28920;59.862;30.636;2023-04-01T20:45:37;9.75;;;4.95;;
43325;SDS011;28920;59.862;30.636;2023-04-01T20:50:34;10.10;;;4.07;;
43325;SDS011;28920;59.862;30.636;2023-04-01T20:53:04;7.10;;;3.75;;
43325;SDS011;28920;59.862;30.636;2023-04-01T20:58:15;6.90;;;3.75;;
43325;SDS011;28920;59.862;30.636;2023-04-01T21:00:51;6.15;;;3.12;;
43325;SDS011;28920;59.862;30.636;2023-04-01T21:03:23;8.15;;;4.10;;
43325;SDS011;28920;59.862;30.636;2023-04-01T21:06:01;6.32;;;3.45;;
43325;SDS011;28920;59.862;30.636;2023-04-01T21:08:35;8.32;;;4.28;;
43325;SDS011;28920;59.862;30.636;2023-04-01T21:11:08;6.50;;;4.20;;
43325;SDS011;28920;59.862;30.636;2023-04-01T21:13:41;9.13;;;4.78;;
43325;SDS011;28920;59.862;30.636;2023-04-01T21:16:15;8.50;;;4.47;;
43325;SDS011;28920;59.862;30.636;2023-04-01T21:19:00;5.15;;;3.62;;
43325;SDS011;28920;59.862;30.636;2023-04-01T21:21:45;6.18;;;3.53;;
43325;SDS011;28920;59.862;30.636;2023-04-01T21:27:00;6.20;;;3.40;;
43325;SDS011;28920;59.862;30.636;2023-04-01T21:29:36;6.22;;;3.40;;
43325;SDS011;28920;59.862;30.636;2023-04-01T21:32:22;9.25;;;3.87;;
43325;SDS011;28920;59.862;30.636;2023-04-01T21:34:55;4.62;;;2.67;;
43325;SDS011;28920;59.862;30.636;2023-04-01T21:43:00;3.72;;;2.55;;
43325;SDS011;28920;59.862;30.636;2023-04-01T21:45:37;3.92;;;2.55;;
43325;SDS011;28920;59.862;30.636;2023-04-01T21:53:59;6.43;;;2.80;;
43325;SDS011;28920;59.862;30.636;2023-04-01T22:02:03;5.05;;;3.47;;
43325;SDS011;28920;59.862;30.636;2023-04-01T22:04:45;3.85;;;2.15;;
43325;SDS011;28920;59.862;30.636;2023-04-01T22:07:16;4.20;;;2.42;;
43325;SDS011;28920;59.862;30.636;2023-04-01T22:09:45;4.90;;;2.45;;
43325;SDS011;28920;59.862;30.636;2023-04-01T22:12:17;4.30;;;2.60;;
43325;SDS011;28920;59.862;30.636;2023-04-01T22:14:48;6.50;;;3.33;;
43325;SDS011;28920;59.862;30.636;2023-04-01T22:17:19;10.60;;;4.40;;
43325;SDS011;28920;59.862;30.636;2023-04-01T22:19:50;6.55;;;4.00;;
43325;SDS011;28920;59.862;30.636;2023-04-01T22:22:21;6.95;;;3.78;;
43325;SDS011;28920;59.862;30.636;2023-04-01T22:24:51;5.05;;;3.15;;
43325;SDS011;28920;59.862;30.636;2023-04-01T22:27:24;7.37;;;3.65;;
43325;SDS011;28920;59.862;30.636;2023-04-01T22:29:57;4.57;;;2.95;;
43325;SDS011;28920;59.862;30.636;2023-04-01T22:32:26;5.90;;;3.75;;
43325;SDS011;28920;59.862;30.636;2023-04-01T22:34:56;5.87;;;3.42;;
43325;SDS011;28920;59.862;30.636;2023-04-01T22:37:25;13.57;;;4.32;;
43325;SDS011;28920;59.862;30.636;2023-04-01T22:40:00;9.00;;;3.97;;
43325;SDS011;28920;59.862;30.636;2023-04-01T22:42:40;8.88;;;4.65;;
43325;SDS011;28920;59.862;30.636;2023-04-01T22:45:18;12.48;;;5.65;;
43325;SDS011;28920;59.862;30.636;2023-04-01T22:47:51;5.70;;;3.47;;
43325;SDS011;28920;59.862;30.636;2023-04-01T22:50:23;8.65;;;3.15;;
43325;SDS011;28920;59.862;30.636;2023-04-01T22:52:53;5.43;;;2.80;;
43325;SDS011;28920;59.862;30.636;2023-04-01T22:55:21;6.32;;;3.37;;
43325;SDS011;28920;59.862;30.636;2023-04-01T22:57:50;4.25;;;2.40;;
43325;SDS011;28920;59.862;30.636;2023-04-01T23:00:19;3.50;;;2.05;;
43325;SDS011;28920;59.862;30.636;2023-04-01T23:02:47;3.40;;;1.98;;
43325;SDS011;28920;59.862;30.636;2023-04-01T23:05:17;6.95;;;2.83;;
43325;SDS011;28920;59.862;30.636;2023-04-01T23:07:45;3.30;;;1.95;;
43325;SDS011;28920;59.862;30.636;2023-04-01T23:10:17;4.22;;;2.42;;
43325;SDS011;28920;59.862;30.636;2023-04-01T23:12:45;3.45;;;1.92;;
43325;SDS011;28920;59.862;30.636;2023-04-01T23:15:12;5.85;;;2.10;;
43325;SDS011;28920;59.862;30.636;2023-04-01T23:17:41;5.55;;;2.65;;
43325;SDS011;28920;59.862;30.636;2023-04-01T23:20:14;3.08;;;1.90;;
43325;SDS011;28920;59.862;30.636;2023-04-01T23:22:51;2.58;;;1.95;;
43325;SDS011;28920;59.862;30.636;2023-04-01T23:25:25;3.50;;;1.70;;
43325;SDS011;28920;59.862;30.636;2023-04-01T23:27:54;3.62;;;2.00;;
43325;SDS011;28920;59.862;30.636;2023-04-01T23:33:10;3.83;;;2.15;;
43325;SDS011;28920;59.862;30.636;2023-04-01T23:35:45;2.95;;;1.75;;
43325;SDS011;28920;59.862;30.636;2023-04-01T23:38:13;3.78;;;2.70;;
43325;SDS011;28920;59.862;30.636;2023-04-01T23:40:40;3.90;;;2.17;;
43325;SDS011;28920;59.862;30.636;2023-04-01T23:43:12;4.70;;;1.90;;
43325;SDS011;28920;59.862;30.636;2023-04-01T23:45:40;3.87;;;1.67;;
43325;SDS011;28920;59.862;30.636;2023-04-01T23:48:08;2.67;;;1.67;;
43325;SDS011;28920;59.862;30.636;2023-04-01T23:50:37;4.65;;;2.35;;
43325;SDS011;28920;59.862;30.636;2023-04-01T23:53:08;3.10;;;1.85;;
43325;SDS011;28920;59.862;30.636;2023-04-01T23:55:38;2.47;;;1.73;;
43325;SDS011;28920;59.862;30.636;2023-04-01T23:58:11;3.95;;;2.37;;
